Time;durP1;ratioP1;P1;durP2;ratioP2;P2;SDS_P1;SDS_P2;PMS_P1;PMS_P2;Temp;Humidity;BMP_temperature;BMP_pressure;BME280_temperature;BME280_humidity;BME280_pressure;Samples;Min_cycle;Max_cycle;Signal;HPM_P1;HPM_P2
2023/10/14 00:00:41;;;;;;;;;;;;;;;14.29;100.00;100075.72;5094004;28;19930;-68
2023/10/14 00:03:18;;;;;;;;;;;;;;;14.15;100.00;100066.59;5083287;28;19916;-67
2023/10/14 00:05:43;;;;;;;;;;;;;;;14.11;100.00;100083.44;5082406;28;19943;-69
2023/10/14 00:08:12;;;;;;;;;;;;;;;13.96;100.00;100084.03;5095429;28;20379;-69
2023/10/14 00:10:39;;;;;;;;;;;;;;;13.89;100.00;100082.53;5079260;28;20010;-69
2023/10/14 00:13:04;;;;;;;;;;;;;;;13.88;100.00;100097.50;5081658;28;20377;-70
2023/10/14 00:15:34;;;;;;;;;;;;;;;13.72;100.00;100102.47;5078470;28;19927;-69
2023/10/14 00:18:00;;;;;;;;;;;;;;;13.62;100.00;100137.91;5100899;28;20296;-68
2023/10/14 00:20:25;;;;;;;;;;;;;;;13.62;100.00;100122.13;5076419;28;19927;-68
2023/10/14 00:22:50;;;;;;;;;;;;;;;13.54;100.00;100111.03;5081148;28;19964;-69
2023/10/14 00:25:19;;;;;;;;;;;;;;;13.47;100.00;100116.50;5098815;28;19928;-71
2023/10/14 00:27:45;;;;;;;;;;;;;;;13.44;100.00;100111.34;5079942;28;19928;-70
2023/10/14 00:30:11;;;;;;;;;;;;;;;13.47;100.00;100099.84;5094149;28;19923;-70
2023/10/14 00:32:37;;;;;;;;;;;;;;;13.40;100.00;100127.28;5076612;28;19920;-69
2023/10/14 00:35:04;;;;;;;;;;;;;;;13.37;100.00;100122.16;5075006;28;19935;-70
2023/10/14 00:37:33;;;;;;;;;;;;;;;13.32;100.00;100123.13;5077870;28;19924;-69
2023/10/14 00:40:05;;;;;;;;;;;;;;;13.33;100.00;100116.09;5074216;28;19930;-69
2023/10/14 00:42:31;;;;;;;;;;;;;;;13.29;100.00;100115.34;5073010;28;19928;-69
2023/10/14 00:44:56;;;;;;;;;;;;;;;13.27;100.00;100142.63;5093054;28;19920;-69
2023/10/14 00:47:24;;;;;;;;;;;;;;;13.27;100.00;100158.41;5094657;28;20003;-69
2023/10/14 00:49:52;;;;;;;;;;;;;;;13.26;100.00;100178.59;5090460;28;20030;-69
2023/10/14 00:52:21;;;;;;;;;;;;;;;13.26;100.00;100177.72;5089140;28;20276;-69
2023/10/14 00:59:41;;;;;;;;;;;;;;;13.31;100.00;100197.72;5093148;28;19931;-69
2023/10/14 01:02:09;;;;;;;;;;;;;;;13.33;100.00;100197.66;5074759;28;19920;-70
2023/10/14 01:04:35;;;;;;;;;;;;;;;13.34;100.00;100191.50;5103683;28;19924;-69
2023/10/14 01:12:18;;;;;;;;;;;;;;;13.29;100.00;100190.81;5108808;28;19927;-70
2023/10/14 01:14:45;;;;;;;;;;;;;;;13.28;100.00;100197.81;5103555;28;20367;-69
2023/10/14 01:17:14;;;;;;;;;;;;;;;13.28;100.00;100202.22;5105025;28;20019;-69
2023/10/14 01:19:39;;;;;;;;;;;;;;;13.30;100.00;100224.06;5100132;28;20327;-69
2023/10/14 01:22:10;;;;;;;;;;;;;;;13.45;100.00;100236.75;5098990;28;19965;-69
2023/10/14 01:24:41;;;;;;;;;;;;;;;13.31;100.00;100238.97;5091374;28;19965;-70
2023/10/14 01:27:07;;;;;;;;;;;;;;;13.33;100.00;100237.13;5063484;28;20450;-70
2023/10/14 01:29:39;;;;;;;;;;;;;;;13.02;100.00;100243.38;5070635;28;19924;-69
2023/10/14 01:35:12;;;;;;;;;;;;;;;12.90;100.00;100254.28;5087131;28;19924;-69
2023/10/14 01:37:38;;;;;;;;;;;;;;;12.79;100.00;100270.41;5078203;28;20376;-69
2023/10/14 01:40:17;;;;;;;;;;;;;;;12.76;100.00;100279.22;5055307;28;20022;-69
2023/10/14 01:42:43;;;;;;;;;;;;;;;12.69;100.00;100280.31;5072454;28;19920;-68
2023/10/14 01:45:08;;;;;;;;;;;;;;;12.77;100.00;100286.22;5072850;28;20287;-70
2023/10/14 01:47:41;;;;;;;;;;;;;;;12.62;100.00;100291.91;5072741;28;20263;-70
2023/10/14 01:50:09;;;;;;;;;;;;;;;12.60;100.00;100306.88;5056729;28;19920;-69
2023/10/14 01:52:34;;;;;;;;;;;;;;;12.58;100.00;100304.28;5076771;28;19917;-69
2023/10/14 01:55:00;;;;;;;;;;;;;;;12.56;100.00;100324.50;5053941;28;19935;-69
2023/10/14 01:57:25;;;;;;;;;;;;;;;12.74;100.00;100338.00;5089581;28;20375;-70
2023/10/14 01:59:51;;;;;;;;;;;;;;;12.66;100.00;100351.38;5062721;28;20380;-70
2023/10/14 02:02:20;;;;;;;;;;;;;;;12.42;100.00;100358.19;5061274;28;19924;-70
2023/10/14 02:04:47;;;;;;;;;;;;;;;12.29;100.00;100360.28;5055597;28;19920;-69
2023/10/14 02:07:18;;;;;;;;;;;;;;;12.16;100.00;100353.63;5054451;28;19946;-70
2023/10/14 02:09:44;;;;;;;;;;;;;;;12.12;100.00;100372.09;5057871;28;19975;-68
2023/10/14 02:12:11;;;;;;;;;;;;;;;12.10;100.00;100381.75;5066482;28;19960;-70
2023/10/14 02:14:39;;;;;;;;;;;;;;;12.01;100.00;100383.75;5083135;28;19989;-68
2023/10/14 02:17:04;;;;;;;;;;;;;;;12.04;100.00;100384.56;5077764;28;19920;-69
2023/10/14 02:21:59;;;;;;;;;;;;;;;11.96;100.00;100391.75;5076459;28;20074;-69
2023/10/14 02:24:27;;;;;;;;;;;;;;;11.89;100.00;100396.25;5063624;28;19921;-68
2023/10/14 02:26:52;;;;;;;;;;;;;;;11.87;100.00;100412.97;5089927;28;20013;-69
2023/10/14 02:29:18;;;;;;;;;;;;;;;11.85;100.00;100415.63;5098443;28;20428;-69
2023/10/14 02:31:45;;;;;;;;;;;;;;;11.84;100.00;100436.63;5074826;28;20285;-68
2023/10/14 02:34:11;;;;;;;;;;;;;;;11.81;100.00;100434.97;5078075;28;19932;-68
2023/10/14 02:36:50;;;;;;;;;;;;;;;11.81;100.00;100434.97;5097804;28;19922;-69
2023/10/14 02:39:26;;;;;;;;;;;;;;;11.79;100.00;100447.25;5099833;28;19953;-69
2023/10/14 02:44:48;;;;;;;;;;;;;;;11.78;100.00;100466.56;5087574;28;19916;-69
2023/10/14 02:47:13;;;;;;;;;;;;;;;11.76;100.00;100469.19;5104888;28;19919;-68
2023/10/14 02:49:42;;;;;;;;;;;;;;;11.75;100.00;100477.97;5096008;28;19955;-68
2023/10/14 02:52:11;;;;;;;;;;;;;;;11.74;100.00;100485.88;5083940;28;20863;-71
2023/10/14 02:54:54;;;;;;;;;;;;;;;11.70;100.00;100487.69;5097901;28;19926;-70
2023/10/14 02:59:48;;;;;;;;;;;;;;;11.63;100.00;100509.72;5100169;28;20313;-70
2023/10/14 03:02:25;;;;;;;;;;;;;;;11.63;100.00;100514.97;5089841;28;19931;-72
2023/10/14 03:07:28;;;;;;;;;;;;;;;11.64;100.00;100532.47;5115409;28;19912;-71
2023/10/14 03:10:11;;;;;;;;;;;;;;;11.57;100.00;100536.97;5079984;28;19924;-70
2023/10/14 03:12:39;;;;;;;;;;;;;;;11.53;100.00;100537.91;5097994;28;19919;-70
2023/10/14 03:15:18;;;;;;;;;;;;;;;11.52;100.00;100548.44;5096798;28;19930;-71
2023/10/14 03:17:52;;;;;;;;;;;;;;;11.44;100.00;100552.09;5098167;28;20385;-68
2023/10/14 03:23:22;;;;;;;;;;;;;;;11.37;100.00;100570.63;5114482;28;19912;-68
2023/10/14 03:25:49;;;;;;;;;;;;;;;11.30;100.00;100582.97;5090142;28;20162;-68
2023/10/14 03:28:15;;;;;;;;;;;;;;;11.26;100.00;100583.94;5093780;28;19912;-67
2023/10/14 03:30:44;;;;;;;;;;;;;;;11.21;100.00;100589.25;5095251;28;19922;-68
2023/10/14 03:33:11;;;;;;;;;;;;;;;11.18;100.00;100591.09;5093367;28;19912;-69
2023/10/14 03:35:37;;;;;;;;;;;;;;;11.15;100.00;100601.63;5092664;28;20287;-69
2023/10/14 03:38:11;;;;;;;;;;;;;;;11.12;100.00;100607.81;5085089;28;19916;-68
2023/10/14 03:43:16;;;;;;;;;;;;;;;11.03;100.00;100614.06;5101279;28;19948;-68
2023/10/14 03:45:57;;;;;;;;;;;;;;;10.98;100.00;100623.75;5089724;28;20069;-69
2023/10/14 03:48:28;;;;;;;;;;;;;;;10.91;100.00;100638.72;5087865;28;19916;-71
2023/10/14 03:51:02;;;;;;;;;;;;;;;10.88;100.00;100633.53;5099599;28;19930;-71
2023/10/14 03:53:30;;;;;;;;;;;;;;;10.83;100.00;100639.75;5082920;28;19931;-71
2023/10/14 03:55:57;;;;;;;;;;;;;;;10.78;100.00;100644.22;5088291;28;20376;-71
2023/10/14 03:58:23;;;;;;;;;;;;;;;10.73;100.00;100645.16;5098406;28;19919;-71
2023/10/14 04:00:49;;;;;;;;;;;;;;;10.69;100.00;100659.19;5072289;28;19927;-72
2023/10/14 04:03:24;;;;;;;;;;;;;;;10.65;100.00;100662.72;5066312;28;19959;-71
2023/10/14 04:05:54;;;;;;;;;;;;;;;10.61;100.00;100670.66;5080862;28;20375;-71
2023/10/14 04:08:30;;;;;;;;;;;;;;;10.54;100.00;100678.63;5079756;28;19920;-73
2023/10/14 04:11:09;;;;;;;;;;;;;;;10.47;100.00;100682.19;5078323;28;19955;-72
2023/10/14 04:13:35;;;;;;;;;;;;;;;10.43;100.00;100687.50;5088913;28;19920;-71
2023/10/14 04:16:01;;;;;;;;;;;;;;;10.38;100.00;100688.41;5097551;28;19920;-72
2023/10/14 04:18:26;;;;;;;;;;;;;;;10.33;100.00;100690.22;5089849;28;19916;-72
2023/10/14 04:26:31;;;;;;;;;;;;;;;10.20;100.00;100714.81;5093694;28;20689;-72
2023/10/14 04:28:58;;;;;;;;;;;;;;;10.17;100.00;100722.72;5089862;28;19920;-69
2023/10/14 04:31:38;;;;;;;;;;;;;;;10.14;100.00;100730.59;5067951;28;20300;-69
2023/10/14 04:34:06;;;;;;;;;;;;;;;10.10;100.00;100734.13;5090137;28;19942;-69
2023/10/14 04:41:46;;;;;;;;;;;;;;;9.99;100.00;100740.38;5090968;28;20014;-70
2023/10/14 04:44:11;;;;;;;;;;;;;;;9.94;100.00;100741.31;5088116;28;19916;-70
2023/10/14 04:46:54;;;;;;;;;;;;;;;9.89;100.00;100754.44;5068615;28;20418;-69
2023/10/14 04:49:29;;;;;;;;;;;;;;;9.86;100.00;100765.81;5089774;28;20368;-69
2023/10/14 04:51:58;;;;;;;;;;;;;;;9.82;100.00;100760.63;5087924;28;19969;-69
2023/10/14 04:54:25;;;;;;;;;;;;;;;9.78;100.00;100769.38;5070914;28;19928;-71
2023/10/14 04:56:57;;;;;;;;;;;;;;;9.74;100.00;100770.28;5071193;28;20023;-71
2023/10/14 04:59:24;;;;;;;;;;;;;;;9.71;100.00;100787.75;5104251;28;19919;-72
2023/10/14 05:01:50;;;;;;;;;;;;;;;9.68;100.00;100790.41;5065103;28;19917;-69
2023/10/14 05:04:20;;;;;;;;;;;;;;;9.68;100.00;100793.03;5103336;28;19916;-72
2023/10/14 05:06:52;;;;;;;;;;;;;;;9.67;100.00;100793.91;5091056;28;19965;-71
2023/10/14 05:09:30;;;;;;;;;;;;;;;9.65;100.00;100800.88;5088696;28;19982;-69
2023/10/14 05:11:56;;;;;;;;;;;;;;;9.63;100.00;100813.13;5075556;28;19927;-68
2023/10/14 05:14:34;;;;;;;;;;;;;;;9.61;100.00;100812.28;5083580;28;19920;-68
2023/10/14 05:17:05;;;;;;;;;;;;;;;9.57;100.00;100807.94;5089722;28;20287;-68
2023/10/14 05:19:35;;;;;;;;;;;;;;;9.53;100.00;100824.53;5082257;28;19913;-71
2023/10/14 05:22:10;;;;;;;;;;;;;;;9.51;100.00;100824.56;5081351;28;20295;-69
2023/10/14 05:24:36;;;;;;;;;;;;;;;9.50;100.00;100829.81;5084180;28;19916;-72
2023/10/14 05:27:01;;;;;;;;;;;;;;;9.46;100.00;100836.78;5105602;28;20251;-71
2023/10/14 05:29:28;;;;;;;;;;;;;;;9.43;100.00;100838.56;5073228;28;19916;-71
2023/10/14 05:32:01;;;;;;;;;;;;;;;9.42;100.00;100844.69;5095175;28;19926;-71
2023/10/14 05:34:29;;;;;;;;;;;;;;;9.39;100.00;100842.94;5092819;28;19936;-71
2023/10/14 05:36:57;;;;;;;;;;;;;;;9.38;100.00;100851.69;5097053;28;19944;-71
2023/10/14 05:39:22;;;;;;;;;;;;;;;9.38;100.00;100856.03;5091295;28;19925;-71
2023/10/14 05:41:48;;;;;;;;;;;;;;;9.38;100.00;100856.03;5089663;28;20455;-72
2023/10/14 05:44:14;;;;;;;;;;;;;;;9.39;100.00;100861.25;5100149;28;19920;-71
2023/10/14 05:46:41;;;;;;;;;;;;;;;9.41;100.00;100869.09;5092785;28;19916;-72
2023/10/14 05:49:07;;;;;;;;;;;;;;;9.42;100.00;100878.69;5091556;28;19920;-72
2023/10/14 05:51:32;;;;;;;;;;;;;;;9.43;100.00;100883.03;5098166;28;19916;-71
2023/10/14 05:53:57;;;;;;;;;;;;;;;9.44;100.00;100896.09;5078878;28;19969;-72
2023/10/14 05:56:27;;;;;;;;;;;;;;;9.43;100.00;100885.66;5091794;28;19920;-68
2023/10/14 05:58:53;;;;;;;;;;;;;;;9.44;100.00;100890.00;5092832;28;20310;-71
2023/10/14 06:01:19;;;;;;;;;;;;;;;9.43;100.00;100896.97;5094359;28;19920;-68
2023/10/14 06:03:46;;;;;;;;;;;;;;;9.44;100.00;100895.22;5080999;28;20388;-69
2023/10/14 06:06:16;;;;;;;;;;;;;;;9.43;100.00;100902.22;5086379;28;19944;-69
2023/10/14 06:08:49;;;;;;;;;;;;;;;9.44;100.00;100906.56;5095536;28;19935;-69
2023/10/14 06:11:18;;;;;;;;;;;;;;;9.44;100.00;100917.03;5098418;28;19924;-68
2023/10/14 06:13:44;;;;;;;;;;;;;;;9.43;100.00;100925.75;5095497;28;19955;-69
2023/10/14 06:16:10;;;;;;;;;;;;;;;9.47;100.00;100930.09;5091514;28;20033;-70
2023/10/14 06:18:36;;;;;;;;;;;;;;;9.49;100.00;100932.69;5090244;28;19916;-68
2023/10/14 06:21:01;;;;;;;;;;;;;;;9.52;100.00;100936.19;5075300;28;19985;-69
2023/10/14 06:23:26;;;;;;;;;;;;;;;9.58;100.00;100943.09;5077022;28;19920;-69
2023/10/14 06:25:52;;;;;;;;;;;;;;;9.70;100.00;100956.09;5091036;28;19927;-69
2023/10/14 06:28:19;;;;;;;;;;;;;;;9.87;100.00;100958.63;5058845;28;20023;-71
2023/10/14 06:30:45;;;;;;;;;;;;;;;9.99;100.00;100962.88;5055382;28;20113;-71
2023/10/14 06:33:11;;;;;;;;;;;;;;;10.17;100.00;100971.47;5073636;28;20015;-69
2023/10/14 06:35:42;;;;;;;;;;;;;;;10.35;100.00;100975.75;5056306;28;19923;-69
2023/10/14 06:38:09;;;;;;;;;;;;;;;10.50;100.00;100975.63;5057853;28;19920;-68
2023/10/14 06:40:37;;;;;;;;;;;;;;;10.62;100.00;100979.00;5057395;28;19927;-69
2023/10/14 06:45:34;;;;;;;;;;;;;;;10.86;100.00;101001.44;5138775;22;19935;-69
2023/10/14 06:48:03;;;;;;;;;;;;;;;10.96;99.75;101008.38;5091709;28;20262;-70
2023/10/14 06:50:29;;;;;;;;;;;;;;;11.02;99.53;101005.66;5090968;28;19927;-70
2023/10/14 06:55:37;;;;;;;;;;;;;;;10.99;99.72;101010.06;5085998;28;19935;-70
2023/10/14 06:58:06;;;;;;;;;;;;;;;11.26;99.78;101016.75;5096723;23;20392;-70
2023/10/14 07:00:38;;;;;;;;;;;;;;;11.55;98.44;101023.38;5037451;28;19924;-72
2023/10/14 07:03:10;;;;;;;;;;;;;;;11.54;97.30;101037.41;5143894;23;19925;-70
2023/10/14 07:16:22;;;;;;;;;;;;;;;15.32;84.21;101050.06;5221724;22;19927;-70
2023/10/14 07:55:57;;;;;;;;;;;;;;;21.98;61.97;101124.50;5114570;28;19923;-71
2023/10/14 07:58:23;;;;;;;;;;;;;;;21.13;62.06;101122.75;5096639;28;20305;-71
2023/10/14 08:00:49;;;;;;;;;;;;;;;20.48;64.96;101116.16;5092018;28;19923;-73
2023/10/14 08:03:16;;;;;;;;;;;;;;;20.88;66.31;101124.00;5094756;28;19915;-73
2023/10/14 08:05:43;;;;;;;;;;;;;;;22.06;63.29;101132.91;5094849;28;19927;-72
2023/10/14 08:08:09;;;;;;;;;;;;;;;22.20;61.32;101129.47;5091672;28;19915;-73
2023/10/14 08:10:35;;;;;;;;;;;;;;;21.65;61.90;101144.06;5111430;28;19955;-73
2023/10/14 08:13:04;;;;;;;;;;;;;;;20.91;57.52;101142.50;5093005;28;20374;-73
2023/10/14 08:15:29;;;;;;;;;;;;;;;20.34;67.63;101146.13;5074081;28;19928;-73
2023/10/14 08:17:58;;;;;;;;;;;;;;;19.77;65.14;101155.84;5074671;28;19939;-73
2023/10/14 08:20:23;;;;;;;;;;;;;;;19.05;67.15;101152.78;5091305;28;19920;-72
2023/10/14 08:22:48;;;;;;;;;;;;;;;18.55;69.69;101151.25;5072989;28;19926;-72
2023/10/14 08:25:18;;;;;;;;;;;;;;;18.28;68.49;101156.72;5068662;28;20296;-73
2023/10/14 08:27:44;;;;;;;;;;;;;;;18.32;67.94;101160.97;5076523;28;19924;-70
2023/10/14 08:30:11;;;;;;;;;;;;;;;18.18;67.46;101165.94;5088200;28;20297;-70
2023/10/14 08:32:40;;;;;;;;;;;;;;;17.80;70.54;101170.84;5079208;28;19948;-73
2023/10/14 08:35:17;;;;;;;;;;;;;;;18.57;68.22;101157.34;5073499;28;19981;-70
2023/10/14 08:37:47;;;;;;;;;;;;;;;19.33;67.45;101167.53;5094328;28;19927;-73
2023/10/14 08:40:16;;;;;;;;;;;;;;;19.23;66.01;101177.69;5108093;28;20407;-74
2023/10/14 08:42:45;;;;;;;;;;;;;;;18.83;65.74;101185.50;5105259;28;19994;-72
2023/10/14 08:45:10;;;;;;;;;;;;;;;18.64;65.27;101181.84;5091111;28;19916;-70
2023/10/14 08:47:36;;;;;;;;;;;;;;;18.71;66.31;101186.00;5082543;28;20065;-72
2023/10/14 08:50:01;;;;;;;;;;;;;;;18.89;66.97;101195.00;5075873;28;19920;-72
2023/10/14 08:52:29;;;;;;;;;;;;;;;18.65;67.46;101197.72;5073777;28;19912;-70
2023/10/14 08:54:55;;;;;;;;;;;;;;;18.62;66.13;101212.88;5091717;28;20272;-70
2023/10/14 08:57:22;;;;;;;;;;;;;;;18.14;65.63;101204.97;5064488;28;19935;-71
2023/10/14 08:59:49;;;;;;;;;;;;;;;17.82;66.17;101216.75;5051466;28;20338;-71
2023/10/14 09:02:14;;;;;;;;;;;;;;;17.60;66.64;101214.88;5063168;28;19920;-71
2023/10/14 09:04:40;;;;;;;;;;;;;;;17.62;69.16;101215.66;5072380;28;19916;-72
2023/10/14 09:07:12;;;;;;;;;;;;;;;17.56;68.52;101215.88;5055664;28;19924;-70
2023/10/14 09:09:37;;;;;;;;;;;;;;;17.25;66.53;101216.91;5066398;28;20446;-70
2023/10/14 09:12:13;;;;;;;;;;;;;;;17.09;69.32;101221.00;5069494;28;20053;-70
2023/10/14 09:14:39;;;;;;;;;;;;;;;17.00;68.42;101221.31;5069863;28;20297;-71
2023/10/14 09:17:10;;;;;;;;;;;;;;;16.68;68.43;101225.81;5064957;28;20290;-70
2023/10/14 09:19:49;;;;;;;;;;;;;;;16.73;68.48;101223.91;5072033;28;19916;-70
2023/10/14 09:22:24;;;;;;;;;;;;;;;16.63;67.58;101216.22;5088497;28;20372;-71
2023/10/14 09:24:54;;;;;;;;;;;;;;;16.52;69.08;101226.31;5073388;28;19941;-71
2023/10/14 09:27:19;;;;;;;;;;;;;;;16.43;68.14;101221.28;5051531;28;19916;-71
2023/10/14 09:29:45;;;;;;;;;;;;;;;16.65;68.79;101228.56;5069791;28;20029;-70
2023/10/14 09:32:10;;;;;;;;;;;;;;;17.44;66.30;101226.91;5049693;28;19920;-71
2023/10/14 09:34:36;;;;;;;;;;;;;;;18.99;62.96;101225.59;5071718;28;20382;-70
2023/10/14 09:37:10;;;;;;;;;;;;;;;19.89;60.36;101227.13;5054122;28;20399;-71
2023/10/14 09:39:39;;;;;;;;;;;;;;;19.71;60.78;101240.28;5057754;28;19993;-71
2023/10/14 09:42:05;;;;;;;;;;;;;;;19.84;58.48;101237.09;5062177;28;19917;-73
2023/10/14 09:44:31;;;;;;;;;;;;;;;21.15;58.59;101238.09;5073626;28;20364;-73
2023/10/14 09:46:58;;;;;;;;;;;;;;;21.69;58.27;101233.59;5047876;28;19959;-72
2023/10/14 09:49:25;;;;;;;;;;;;;;;21.24;56.13;101248.31;5079843;28;20014;-71
2023/10/14 09:51:53;;;;;;;;;;;;;;;20.88;56.43;101243.88;5084556;28;19926;-73
2023/10/14 09:54:22;;;;;;;;;;;;;;;19.85;58.16;101238.81;5089215;28;19916;-74
2023/10/14 09:56:50;;;;;;;;;;;;;;;19.17;62.18;101236.38;5073105;28;20363;-72
2023/10/14 09:59:17;;;;;;;;;;;;;;;18.72;62.07;101256.75;5082211;28;19962;-73
2023/10/14 10:01:43;;;;;;;;;;;;;;;18.15;61.28;101258.91;5087533;28;19912;-73
2023/10/14 10:04:12;;;;;;;;;;;;;;;17.96;61.54;101254.25;5068668;28;19920;-70
2023/10/14 10:06:43;;;;;;;;;;;;;;;17.82;63.59;101256.50;5087565;28;19916;-72
2023/10/14 10:09:26;;;;;;;;;;;;;;;17.41;59.45;101248.19;5088491;28;19916;-70
2023/10/14 10:11:53;;;;;;;;;;;;;;;16.92;60.78;101254.22;5089342;28;19912;-70
2023/10/14 10:14:20;;;;;;;;;;;;;;;16.94;65.08;101260.31;5088920;28;20011;-72
2023/10/14 10:16:47;;;;;;;;;;;;;;;16.82;64.58;101260.66;5071270;28;19920;-72
2023/10/14 10:19:13;;;;;;;;;;;;;;;16.84;64.59;101261.47;5087498;28;19912;-71
2023/10/14 10:21:43;;;;;;;;;;;;;;;16.79;64.41;101266.03;5088756;28;19923;-71
2023/10/14 10:24:15;;;;;;;;;;;;;;;16.56;62.90;101264.94;5071827;28;20030;-71
2023/10/14 10:26:59;;;;;;;;;;;;;;;16.73;59.42;101261.81;5089292;28;19958;-71
2023/10/14 10:29:24;;;;;;;;;;;;;;;16.69;60.75;101269.88;5074606;28;20423;-73
2023/10/14 10:32:19;;;;;;;;;;;;;;;16.58;61.06;101279.03;5091881;28;20014;-74
2023/10/14 10:35:03;;;;;;;;;;;;;;;16.58;59.48;101273.72;5071230;28;19925;-70
2023/10/14 10:37:29;;;;;;;;;;;;;;;16.72;60.17;101275.09;5089469;28;19920;-71
2023/10/14 10:39:54;;;;;;;;;;;;;;;16.68;59.69;101279.63;5075367;28;19947;-72
2023/10/14 10:42:19;;;;;;;;;;;;;;;16.29;59.20;101290.44;5073889;28;20386;-70
2023/10/14 10:44:45;;;;;;;;;;;;;;;16.46;61.23;101282.00;5088027;28;19923;-70
2023/10/14 10:47:12;;;;;;;;;;;;;;;16.93;59.36;101286.81;5092082;28;19920;-70
2023/10/14 10:49:50;;;;;;;;;;;;;;;17.75;58.67;101284.16;5095878;28;20428;-71
2023/10/14 10:52:16;;;;;;;;;;;;;;;18.12;56.51;101290.84;5089753;28;19974;-69
2023/10/14 10:54:45;;;;;;;;;;;;;;;17.97;58.17;101289.59;5091500;28;20363;-70
2023/10/14 10:57:11;;;;;;;;;;;;;;;17.87;55.49;101301.41;5094873;28;20348;-70
2023/10/14 10:59:37;;;;;;;;;;;;;;;17.19;57.35;101301.88;5090507;28;19999;-70
2023/10/14 11:02:05;;;;;;;;;;;;;;;16.93;57.45;101300.91;5094516;28;19937;-70
2023/10/14 11:04:30;;;;;;;;;;;;;;;17.42;59.21;101302.91;5077527;28;20431;-70
2023/10/14 11:06:56;;;;;;;;;;;;;;;17.37;56.23;101308.38;5075251;28;20006;-70
2023/10/14 11:09:21;;;;;;;;;;;;;;;16.76;57.07;101311.97;5081096;28;19981;-70
2023/10/14 11:11:48;;;;;;;;;;;;;;;16.20;61.46;101303.94;5077325;28;19919;-69
2023/10/14 11:14:18;;;;;;;;;;;;;;;15.62;62.10;101314.25;5108881;28;19912;-71
2023/10/14 11:16:44;;;;;;;;;;;;;;;15.33;62.41;101310.53;5095553;28;19947;-70
2023/10/14 11:19:10;;;;;;;;;;;;;;;15.26;60.73;101304.53;5079827;28;19922;-68
2023/10/14 11:21:37;;;;;;;;;;;;;;;15.32;61.79;101308.81;5110089;27;20014;-68
2023/10/14 11:24:04;;;;;;;;;;;;;;;15.13;61.98;101303.97;5095327;28;20352;-68
2023/10/14 11:26:30;;;;;;;;;;;;;;;15.01;63.45;101317.44;5105844;28;19916;-68
2023/10/14 11:28:59;;;;;;;;;;;;;;;14.99;63.70;101311.34;5078466;28;19947;-68
2023/10/14 11:31:24;;;;;;;;;;;;;;;14.82;60.17;101307.28;5090037;28;19955;-68
2023/10/14 11:33:49;;;;;;;;;;;;;;;14.62;64.06;101320.91;5113147;28;19960;-68
2023/10/14 11:36:18;;;;;;;;;;;;;;;14.57;64.05;101317.47;5076117;28;19924;-68
2023/10/14 11:38:43;;;;;;;;;;;;;;;14.43;62.66;101312.47;5079369;28;19916;-68
2023/10/14 11:41:10;;;;;;;;;;;;;;;14.47;61.03;101314.16;5077221;28;20407;-67
2023/10/14 11:43:35;;;;;;;;;;;;;;;14.19;60.71;101319.09;5100073;28;19915;-68
2023/10/14 11:46:01;;;;;;;;;;;;;;;14.07;62.94;101314.94;5075537;28;20012;-69
2023/10/14 11:48:27;;;;;;;;;;;;;;;14.12;63.34;101326.28;5093294;28;19924;-68
2023/10/14 11:50:53;;;;;;;;;;;;;;;14.13;63.06;101327.97;5087755;28;20033;-69
2023/10/14 11:53:22;;;;;;;;;;;;;;;14.08;61.97;101321.94;5091740;28;19962;-70
2023/10/14 11:55:48;;;;;;;;;;;;;;;14.14;61.24;101332.38;5077784;28;20287;-70
2023/10/14 11:58:13;;;;;;;;;;;;;;;14.12;60.63;101328.91;5093937;28;19926;-70
2023/10/14 12:00:38;;;;;;;;;;;;;;;14.16;60.96;101330.56;5084850;28;19931;-71
2023/10/14 12:03:06;;;;;;;;;;;;;;;14.13;61.59;101330.63;5090097;28;19924;-73
2023/10/14 12:05:39;;;;;;;;;;;;;;;14.14;60.17;101332.38;5093799;28;19927;-69
2023/10/14 12:08:04;;;;;;;;;;;;;;;13.78;57.87;101326.88;5076244;28;19951;-70
2023/10/14 12:10:29;;;;;;;;;;;;;;;13.65;60.44;101325.34;5088751;28;19948;-70
2023/10/14 12:12:55;;;;;;;;;;;;;;;13.65;62.00;101327.97;5093306;28;20294;-70
2023/10/14 12:15:20;;;;;;;;;;;;;;;13.74;61.82;101330.44;5064332;28;19943;-69
2023/10/14 12:17:46;;;;;;;;;;;;;;;14.01;59.48;101326.44;5087099;28;19951;-70
2023/10/14 12:20:11;;;;;;;;;;;;;;;14.33;60.04;101327.59;5093705;28;19915;-69
2023/10/14 12:22:37;;;;;;;;;;;;;;;14.67;59.90;101326.09;5077347;28;19919;-70
2023/10/14 12:25:03;;;;;;;;;;;;;;;14.73;59.30;101329.47;5093482;28;19922;-69
2023/10/14 12:27:29;;;;;;;;;;;;;;;14.68;59.73;101322.53;5095092;28;19922;-71
2023/10/14 12:29:59;;;;;;;;;;;;;;;14.66;58.58;101325.22;5094046;28;20006;-71
2023/10/14 12:32:32;;;;;;;;;;;;;;;14.84;57.89;101329.25;5094846;28;20317;-70
2023/10/14 12:35:07;;;;;;;;;;;;;;;15.00;57.07;101328.91;5105081;27;19920;-69
2023/10/14 12:37:33;;;;;;;;;;;;;;;15.09;57.21;101333.13;5094191;28;19926;-70
2023/10/14 12:40:11;;;;;;;;;;;;;;;14.90;57.52;101349.34;5079445;28;19915;-69
2023/10/14 12:42:45;;;;;;;;;;;;;;;14.61;56.88;101344.63;5092809;28;20271;-69
2023/10/14 12:45:14;;;;;;;;;;;;;;;14.50;59.62;101348.38;5084493;28;20352;-72
2023/10/14 12:47:45;;;;;;;;;;;;;;;14.58;59.76;101350.84;5090427;28;20365;-72
2023/10/14 12:50:11;;;;;;;;;;;;;;;14.70;60.55;101355.06;5076798;28;20790;-72
2023/10/14 12:52:38;;;;;;;;;;;;;;;16.14;58.28;101347.25;5091386;28;19935;-70
2023/10/14 12:55:14;;;;;;;;;;;;;;;17.98;54.24;101353.16;5077364;28;19976;-70
2023/10/14 12:57:41;;;;;;;;;;;;;;;18.90;51.24;101356.06;5077892;28;20038;-72
2023/10/14 13:00:16;;;;;;;;;;;;;;;18.65;50.53;101356.97;5092126;28;19958;-69
2023/10/14 13:02:42;;;;;;;;;;;;;;;17.92;50.52;101361.34;5077871;28;19920;-72
2023/10/14 13:05:13;;;;;;;;;;;;;;;17.34;50.98;101357.94;5082941;28;19939;-73
2023/10/14 13:07:39;;;;;;;;;;;;;;;16.94;54.17;101365.34;5104545;28;19916;-72
2023/10/14 13:10:08;;;;;;;;;;;;;;;16.60;55.22;101366.28;5078940;28;19920;-69
2023/10/14 13:12:33;;;;;;;;;;;;;;;16.15;55.88;101370.16;5087918;28;19923;-68
2023/10/14 13:14:59;;;;;;;;;;;;;;;15.67;55.77;101384.53;5105325;28;19915;-69
2023/10/14 13:17:24;;;;;;;;;;;;;;;15.21;55.61;101404.97;5092936;28;19924;-71
2023/10/14 13:19:50;;;;;;;;;;;;;;;14.74;58.82;101406.84;5092530;28;19920;-70
2023/10/14 13:22:17;;;;;;;;;;;;;;;14.40;58.70;101410.09;5076332;28;19919;-70
2023/10/14 13:24:49;;;;;;;;;;;;;;;14.19;59.37;101401.69;5109792;28;20041;-69
2023/10/14 13:27:15;;;;;;;;;;;;;;;14.05;59.59;101406.34;5083098;28;20029;-70
2023/10/14 13:29:41;;;;;;;;;;;;;;;13.88;61.37;101403.09;5077790;28;20257;-70
2023/10/14 13:32:06;;;;;;;;;;;;;;;13.70;60.95;101413.03;5090514;28;20319;-71
2023/10/14 13:34:32;;;;;;;;;;;;;;;13.59;62.82;101404.44;5106734;28;19958;-76
2023/10/14 13:36:57;;;;;;;;;;;;;;;13.49;61.77;101412.47;5090996;28;19966;-73
2023/10/14 13:39:23;;;;;;;;;;;;;;;13.41;62.76;101403.81;5073969;28;19916;-73
2023/10/14 13:41:49;;;;;;;;;;;;;;;13.40;62.91;101409.97;5078798;28;19977;-73
2023/10/14 13:44:15;;;;;;;;;;;;;;;13.39;63.42;101405.63;5092408;28;20306;-72
2023/10/14 13:46:41;;;;;;;;;;;;;;;13.48;62.46;101412.50;5077183;28;20014;-70
2023/10/14 13:49:07;;;;;;;;;;;;;;;13.65;62.81;101407.84;5093008;28;19967;-70
2023/10/14 13:51:32;;;;;;;;;;;;;;;13.85;62.94;101415.44;5104240;28;20379;-70
2023/10/14 13:53:58;;;;;;;;;;;;;;;13.98;62.42;101405.56;5092994;28;19959;-71
2023/10/14 13:56:24;;;;;;;;;;;;;;;14.04;62.01;101405.44;5088818;28;19927;-70
2023/10/14 13:58:49;;;;;;;;;;;;;;;14.06;61.21;101408.06;5086251;28;19960;-71
2023/10/14 14:01:17;;;;;;;;;;;;;;;14.02;60.67;101417.78;5064835;28;20427;-69
2023/10/14 14:03:43;;;;;;;;;;;;;;;13.80;62.23;101424.31;5089504;28;20329;-69
2023/10/14 14:06:09;;;;;;;;;;;;;;;13.61;63.05;101424.59;5095478;28;19941;-71
2023/10/14 14:08:34;;;;;;;;;;;;;;;13.40;62.86;101425.75;5079987;28;19926;-70
2023/10/14 14:11:03;;;;;;;;;;;;;;;13.26;64.57;101431.19;5101097;28;19915;-72